createdAt,value
2019-04-10T00:02:39.917Z,4.30
2019-04-10T00:07:43.846Z,4.30
2019-04-10T00:12:47.683Z,4.20
2019-04-10T00:17:51.524Z,4.20
2019-04-10T00:22:55.079Z,4.20
2019-04-10T00:27:59.044Z,4.30
2019-04-10T00:33:02.765Z,4.30
2019-04-10T00:38:07.172Z,4.30
2019-04-10T00:43:10.916Z,4.30
2019-04-10T00:48:15.501Z,4.20
2019-04-10T00:53:19.139Z,4.10
2019-04-10T00:58:22.808Z,4.00
2019-04-10T01:03:46.626Z,3.80
2019-04-10T01:08:50.953Z,3.70
2019-04-10T01:13:54.570Z,3.70
2019-04-10T01:18:58.166Z,3.60
2019-04-10T01:24:01.748Z,3.60
2019-04-10T01:29:05.391Z,3.60
2019-04-10T01:34:09.430Z,3.60
2019-04-10T01:39:17.947Z,3.50
2019-04-10T01:44:22.683Z,3.60
2019-04-10T01:49:26.336Z,3.60
2019-04-10T01:54:31.113Z,3.50
2019-04-10T01:59:36.334Z,3.50
2019-04-10T02:04:39.887Z,3.50
2019-04-10T02:09:43.544Z,3.50
2019-04-10T02:14:47.052Z,3.50
2019-04-10T02:19:50.637Z,3.50
2019-04-10T02:24:54.229Z,3.40
2019-04-10T02:29:57.927Z,3.30
2019-04-10T02:35:03.635Z,3.30
2019-04-10T02:40:09.926Z,3.30
2019-04-10T02:45:15.050Z,3.30
2019-04-10T02:50:20.764Z,3.30
2019-04-10T02:55:25.043Z,3.30
2019-04-10T03:00:30.189Z,3.20
2019-04-10T03:05:34.618Z,3.20
2019-04-10T03:10:44.443Z,3.10
2019-04-10T03:15:44.202Z,3.20
2019-04-10T03:20:48.748Z,3.20
2019-04-10T03:25:53.006Z,3.00
2019-04-10T03:30:58.726Z,3.00
2019-04-10T03:36:03.107Z,3.00
2019-04-10T03:41:08.076Z,3.10
2019-04-10T03:46:12.820Z,2.90
2019-04-10T03:51:18.676Z,2.80
2019-04-10T03:56:21.974Z,2.80
2019-04-10T04:01:25.633Z,2.80
2019-04-10T04:06:29.280Z,2.80
2019-04-10T04:11:33.541Z,2.90
2019-04-10T04:16:37.402Z,2.80
2019-04-10T04:21:41.842Z,2.70
2019-04-10T04:26:46.475Z,2.70
2019-04-10T04:31:50.702Z,2.70
2019-04-10T04:36:54.363Z,2.60
2019-04-10T04:41:58.793Z,2.60
2019-04-10T04:47:03.404Z,2.60
2019-04-10T04:52:07.034Z,2.60
2019-04-10T04:57:10.736Z,2.70
2019-04-10T05:02:14.415Z,2.60
2019-04-10T05:07:18.036Z,2.50
2019-04-10T05:12:21.632Z,2.60
2019-04-10T05:17:25.321Z,2.70
2019-04-10T05:22:29.070Z,2.60
2019-04-10T05:27:33.075Z,2.60
2019-04-10T05:32:37.599Z,2.70
2019-04-10T05:37:41.400Z,2.70
2019-04-10T05:42:45.038Z,2.60
2019-04-10T05:47:48.666Z,2.60
2019-04-10T05:52:52.281Z,2.70
2019-04-10T05:57:55.972Z,2.70
2019-04-10T06:03:00.458Z,2.70
2019-04-10T06:08:04.324Z,2.70
2019-04-10T06:13:08.885Z,2.80
2019-04-10T06:18:13.884Z,2.90
2019-04-10T06:23:17.710Z,3.00
2019-04-10T06:28:21.668Z,3.00
2019-04-10T06:33:27.139Z,3.10
2019-04-10T06:38:31.003Z,3.10
2019-04-10T06:43:34.698Z,3.10
2019-04-10T06:48:38.479Z,3.40
2019-04-10T06:53:42.152Z,3.30
2019-04-10T06:58:45.725Z,3.50
2019-04-10T07:03:56.531Z,3.50
2019-04-10T07:08:55.343Z,3.80
2019-04-10T07:13:59.850Z,3.90
2019-04-10T07:19:06.018Z,3.90
2019-04-10T07:24:10.996Z,4.20
2019-04-10T07:29:19.709Z,4.50
2019-04-10T07:34:23.867Z,4.60
2019-04-10T07:39:28.102Z,4.90
2019-04-10T07:44:30.468Z,5.00
2019-04-10T07:49:34.708Z,5.60
2019-04-10T07:54:41.752Z,6.40
2019-04-10T07:59:45.281Z,6.00
2019-04-10T08:04:48.946Z,6.70
2019-04-10T08:09:54.040Z,7.20
2019-04-10T08:14:57.924Z,6.80
2019-04-10T08:20:01.668Z,5.90
2019-04-10T08:25:07.077Z,6.00
2019-04-10T08:30:11.212Z,6.10
2019-04-10T08:35:15.492Z,6.10
2019-04-10T08:40:21.055Z,5.90
2019-04-10T08:45:26.377Z,5.70
2019-04-10T08:50:30.253Z,5.90
2019-04-10T08:55:34.678Z,5.60
2019-04-10T09:00:38.800Z,5.60
2019-04-10T09:05:42.742Z,5.50
2019-04-10T09:10:47.040Z,5.10
2019-04-10T09:15:50.596Z,5.40
2019-04-10T09:20:55.123Z,5.00
2019-04-10T09:25:59.641Z,5.00
2019-04-10T09:31:03.523Z,4.70
2019-04-10T09:36:07.333Z,4.60
2019-04-10T09:41:11.917Z,4.90
2019-04-10T09:46:16.170Z,4.90
2019-04-10T09:51:19.924Z,4.90
2019-04-10T09:56:23.519Z,4.80
2019-04-10T10:01:30.205Z,4.90
2019-04-10T10:06:36.528Z,4.90
2019-04-10T10:11:39.593Z,5.00
2019-04-10T10:16:44.204Z,5.00
2019-04-10T10:21:48.321Z,5.20
2019-04-10T10:26:52.002Z,5.00
2019-04-10T10:31:55.654Z,5.00
2019-04-10T10:37:03.449Z,5.30
2019-04-10T10:42:07.515Z,5.20
2019-04-10T10:47:11.765Z,5.20
2019-04-10T10:52:15.661Z,5.20
2019-04-10T10:57:19.428Z,5.20
2019-04-10T11:02:23.521Z,5.20
2019-04-10T11:07:27.273Z,5.40
2019-04-10T11:12:30.977Z,5.40
2019-04-10T11:17:35.710Z,5.60
2019-04-10T11:22:39.946Z,5.70
2019-04-10T11:27:43.702Z,5.70
2019-04-10T11:32:48.726Z,5.70
2019-04-10T11:37:55.858Z,5.80
2019-04-10T11:42:59.998Z,5.80
2019-04-10T11:48:03.520Z,5.90
2019-04-10T11:53:09.707Z,5.90
2019-04-10T11:58:14.524Z,6.00
2019-04-10T12:03:18.390Z,6.00
2019-04-10T12:08:46.424Z,5.90
2019-04-10T12:13:27.537Z,5.80
2019-04-10T12:18:31.111Z,5.50
2019-04-10T12:23:34.831Z,5.70
2019-04-10T12:28:38.424Z,5.80
2019-04-10T12:33:42.462Z,5.70
2019-04-10T12:38:46.083Z,5.60
2019-04-10T12:43:49.849Z,5.60
2019-04-10T12:48:53.420Z,5.70
2019-04-10T12:53:58.265Z,5.50
2019-04-10T12:59:02.160Z,5.60
2019-04-10T13:04:05.815Z,5.70
2019-04-10T13:09:12.830Z,5.60
2019-04-10T13:14:14.980Z,5.70
2019-04-10T13:19:18.812Z,5.70
2019-04-10T13:24:23.642Z,5.70
2019-04-10T13:29:28.007Z,5.80
2019-04-10T13:34:31.758Z,6.00
2019-04-10T13:39:35.430Z,5.90
2019-04-10T13:44:39.037Z,5.60
2019-04-10T13:49:42.684Z,5.80
2019-04-10T13:54:47.157Z,6.00
2019-04-10T13:59:50.810Z,5.90
2019-04-10T14:04:55.465Z,6.00
2019-04-10T14:09:59.257Z,6.10
2019-04-10T14:15:02.893Z,5.90
2019-04-10T14:20:07.893Z,6.00
2019-04-10T14:25:22.006Z,5.70
2019-04-10T14:30:43.223Z,6.20
2019-04-10T14:35:47.344Z,6.00
2019-04-10T14:40:51.868Z,5.80
2019-04-10T14:45:55.571Z,5.60
2019-04-10T14:51:00.200Z,5.50
2019-04-10T14:56:04.432Z,5.90
2019-04-10T15:01:08.594Z,5.70
2019-04-10T15:06:15.417Z,5.50
2019-04-10T15:11:19.324Z,5.70
2019-04-10T15:16:23.190Z,5.50
2019-04-10T15:21:27.088Z,5.50
2019-04-10T15:26:30.859Z,5.50
2019-04-10T15:31:35.453Z,5.80
2019-04-10T15:36:40.376Z,5.60
2019-04-10T15:41:45.731Z,5.60
2019-04-10T15:46:49.489Z,5.40
2019-04-10T15:51:53.228Z,5.40
2019-04-10T15:56:56.931Z,5.40
2019-04-10T16:02:01.522Z,5.70
2019-04-10T16:07:06.245Z,5.30
2019-04-10T16:12:11.758Z,5.40
2019-04-10T16:17:34.949Z,5.20
2019-04-10T16:22:40.600Z,5.00
2019-04-10T16:27:45.276Z,4.80
2019-04-10T16:32:50.086Z,4.80
2019-04-10T16:37:53.952Z,4.70
2019-04-10T16:42:57.695Z,4.90
2019-04-10T16:48:01.265Z,4.70
2019-04-10T16:53:05.562Z,4.70
2019-04-10T16:58:09.590Z,4.70
2019-04-10T17:03:13.599Z,4.70
2019-04-10T17:08:17.158Z,4.60
2019-04-10T17:13:20.911Z,4.60
2019-04-10T17:18:26.078Z,4.50
2019-04-10T17:23:29.880Z,4.50
2019-04-10T17:28:34.530Z,4.50
2019-04-10T17:33:41.772Z,4.50
2019-04-10T17:38:46.742Z,4.40
2019-04-10T17:43:51.570Z,4.40
2019-04-10T17:48:55.525Z,4.50
2019-04-10T17:53:59.981Z,4.60
2019-04-10T17:59:03.712Z,4.60
2019-04-10T18:04:09.466Z,4.50
2019-04-10T18:09:13.752Z,4.30
2019-04-10T18:14:17.445Z,4.30
2019-04-10T18:19:21.304Z,4.30
2019-04-10T18:24:24.885Z,4.20
2019-04-10T18:29:28.575Z,4.20
2019-04-10T18:34:33.370Z,4.20
2019-04-10T18:39:37.063Z,4.10
2019-04-10T18:44:41.535Z,4.20
2019-04-10T18:49:45.525Z,4.20
2019-04-10T18:54:49.949Z,4.30
2019-04-10T18:59:55.296Z,4.40
2019-04-10T19:05:13.904Z,4.40
2019-04-10T19:10:17.992Z,4.40
2019-04-10T19:15:22.425Z,4.50
2019-04-10T19:20:26.811Z,4.50
2019-04-10T19:25:30.548Z,4.50
2019-04-10T19:30:37.387Z,4.50
2019-04-10T19:35:41.379Z,4.50
2019-04-10T19:40:45.829Z,4.50
2019-04-10T19:45:50.267Z,4.50
2019-04-10T19:50:54.676Z,4.40
2019-04-10T19:55:58.317Z,4.40
2019-04-10T20:01:03.237Z,4.40
2019-04-10T20:06:07.886Z,4.50
2019-04-10T20:11:11.538Z,4.50
2019-04-10T20:16:15.334Z,4.60
2019-04-10T20:21:19.649Z,4.50
2019-04-10T20:26:23.385Z,4.50
2019-04-10T20:31:29.023Z,4.50
2019-04-10T20:36:33.214Z,4.50
2019-04-10T20:41:46.534Z,4.60
2019-04-10T20:46:42.429Z,4.60
2019-04-10T20:51:47.451Z,4.60
2019-04-10T20:56:51.366Z,4.40
2019-04-10T21:01:55.806Z,4.00
2019-04-10T21:07:00.631Z,4.00
2019-04-10T21:12:09.839Z,4.00
2019-04-10T21:17:09.876Z,3.90
2019-04-10T21:22:13.807Z,3.90
2019-04-10T21:27:18.595Z,3.80
2019-04-10T21:32:23.997Z,3.80
2019-04-10T21:37:28.459Z,3.70
2019-04-10T21:42:32.100Z,3.50
2019-04-10T21:47:35.781Z,3.50
2019-04-10T21:52:39.429Z,3.40
2019-04-10T21:57:43.103Z,3.20
2019-04-10T22:02:46.679Z,3.20
2019-04-10T22:07:58.808Z,3.10
2019-04-10T22:13:03.652Z,3.00
2019-04-10T22:18:07.521Z,2.90
2019-04-10T22:23:11.718Z,2.80
2019-04-10T22:28:15.593Z,2.70
2019-04-10T22:33:20.236Z,2.70
2019-04-10T22:38:24.958Z,2.60
2019-04-10T22:43:28.795Z,2.60
2019-04-10T22:48:32.918Z,2.50
2019-04-10T22:53:37.466Z,2.60
2019-04-10T22:58:42.458Z,2.60
2019-04-10T23:03:47.342Z,2.70
2019-04-10T23:08:51.690Z,2.60
2019-04-10T23:13:56.373Z,2.40
2019-04-10T23:19:00.050Z,2.30
2019-04-10T23:24:04.029Z,2.20
2019-04-10T23:29:08.383Z,2.10
2019-04-10T23:34:12.554Z,2.10
2019-04-10T23:39:16.390Z,2.10
2019-04-10T23:44:20.686Z,2.10
2019-04-10T23:49:25.566Z,2.10
2019-04-10T23:54:29.369Z,2.10
2019-04-10T23:59:33.047Z,2.00
